sensor_id;sensor_type;location;lat;lon;timestamp;P1;durP1;ratioP1;P2;durP2;ratioP2
9384;SDS011;4732;49.340;10.886;2023-08-12T06:30:06;4.45;;;3.80;;
9384;SDS011;4732;49.340;10.886;2023-08-12T06:32:35;5.32;;;3.58;;
9384;SDS011;4732;49.340;10.886;2023-08-12T06:35:03;3.95;;;3.17;;
9384;SDS011;4732;49.340;10.886;2023-08-12T06:37:29;4.57;;;3.20;;
9384;SDS011;4732;49.340;10.886;2023-08-12T06:39:56;3.45;;;3.15;;
9384;SDS011;4732;49.340;10.886;2023-08-12T06:42:22;3.40;;;3.10;;
9384;SDS011;4732;49.340;10.886;2023-08-12T06:44:53;4.25;;;3.80;;
9384;SDS011;4732;49.340;10.886;2023-08-12T06:47:26;8.95;;;4.95;;
9384;SDS011;4732;49.340;10.886;2023-08-12T06:50:05;4.07;;;3.78;;
9384;SDS011;4732;49.340;10.886;2023-08-12T06:52:37;4.00;;;3.60;;
9384;SDS011;4732;49.340;10.886;2023-08-12T06:55:03;4.93;;;3.05;;
9384;SDS011;4732;49.340;10.886;2023-08-12T06:57:34;3.33;;;3.03;;
9384;SDS011;4732;49.340;10.886;2023-08-12T07:00:04;3.53;;;3.17;;
9384;SDS011;4732;49.340;10.886;2023-08-12T07:02:34;5.47;;;3.17;;
9384;SDS011;4732;49.340;10.886;2023-08-12T07:05:04;3.00;;;2.78;;
9384;SDS011;4732;49.340;10.886;2023-08-12T07:07:51;3.47;;;2.60;;
9384;SDS011;4732;49.340;10.886;2023-08-12T07:10:48;2.92;;;2.70;;
9384;SDS011;4732;49.340;10.886;2023-08-12T07:13:18;3.28;;;2.97;;
9384;SDS011;4732;49.340;10.886;2023-08-12T07:15:47;4.45;;;3.15;;
9384;SDS011;4732;49.340;10.886;2023-08-12T07:18:26;3.58;;;3.25;;
9384;SDS011;4732;49.340;10.886;2023-08-12T07:21:27;3.17;;;2.83;;
9384;SDS011;4732;49.340;10.886;2023-08-12T07:24:32;2.67;;;2.47;;
9384;SDS011;4732;49.340;10.886;2023-08-12T07:27:02;3.25;;;2.72;;
9384;SDS011;4732;49.340;10.886;2023-08-12T07:29:29;2.83;;;2.58;;
9384;SDS011;4732;49.340;10.886;2023-08-12T07:32:03;3.25;;;2.55;;
9384;SDS011;4732;49.340;10.886;2023-08-12T07:34:38;2.70;;;2.50;;
9384;SDS011;4732;49.340;10.886;2023-08-12T07:37:06;5.07;;;2.85;;
9384;SDS011;4732;49.340;10.886;2023-08-12T07:39:48;3.22;;;2.92;;
9384;SDS011;4732;49.340;10.886;2023-08-12T07:42:17;3.20;;;3.00;;
9384;SDS011;4732;49.340;10.886;2023-08-12T07:45:24;3.35;;;2.75;;
9384;SDS011;4732;49.340;10.886;2023-08-12T07:48:02;3.10;;;2.88;;
9384;SDS011;4732;49.340;10.886;2023-08-12T07:50:30;2.92;;;2.70;;
9384;SDS011;4732;49.340;10.886;2023-08-12T07:53:01;3.42;;;2.50;;
9384;SDS011;4732;49.340;10.886;2023-08-12T07:55:38;2.78;;;2.58;;
9384;SDS011;4732;49.340;10.886;2023-08-12T07:58:04;2.88;;;2.58;;
9384;SDS011;4732;49.340;10.886;2023-08-12T08:00:32;3.60;;;2.58;;
9384;SDS011;4732;49.340;10.886;2023-08-12T08:03:01;5.88;;;3.17;;
9384;SDS011;4732;49.340;10.886;2023-08-12T08:05:27;3.05;;;2.70;;
9384;SDS011;4732;49.340;10.886;2023-08-12T08:08:01;5.57;;;2.47;;
9384;SDS011;4732;49.340;10.886;2023-08-12T08:10:26;3.05;;;2.80;;
9384;SDS011;4732;49.340;10.886;2023-08-12T08:12:57;3.80;;;2.60;;
9384;SDS011;4732;49.340;10.886;2023-08-12T08:15:23;5.15;;;2.60;;
9384;SDS011;4732;49.340;10.886;2023-08-12T08:17:49;3.15;;;2.88;;
9384;SDS011;4732;49.340;10.886;2023-08-12T08:20:15;4.70;;;2.90;;
9384;SDS011;4732;49.340;10.886;2023-08-12T08:22:43;3.20;;;2.90;;
9384;SDS011;4732;49.340;10.886;2023-08-12T08:25:09;3.08;;;2.85;;
9384;SDS011;4732;49.340;10.886;2023-08-12T08:27:36;3.30;;;2.70;;
9384;SDS011;4732;49.340;10.886;2023-08-12T08:30:02;4.45;;;2.70;;
9384;SDS011;4732;49.340;10.886;2023-08-12T08:32:28;3.80;;;2.85;;
9384;SDS011;4732;49.340;10.886;2023-08-12T08:34:59;2.78;;;2.53;;
9384;SDS011;4732;49.340;10.886;2023-08-12T08:37:27;3.97;;;2.55;;
9384;SDS011;4732;49.340;10.886;2023-08-12T08:39:54;3.38;;;3.05;;
9384;SDS011;4732;49.340;10.886;2023-08-12T08:42:20;3.20;;;2.90;;
9384;SDS011;4732;49.340;10.886;2023-08-12T08:44:46;3.63;;;3.28;;
9384;SDS011;4732;49.340;10.886;2023-08-12T08:47:25;3.78;;;3.00;;
9384;SDS011;4732;49.340;10.886;2023-08-12T08:49:55;3.70;;;2.58;;
9384;SDS011;4732;49.340;10.886;2023-08-12T08:52:26;3.20;;;2.70;;
9384;SDS011;4732;49.340;10.886;2023-08-12T08:55:02;2.53;;;2.33;;
9384;SDS011;4732;49.340;10.886;2023-08-12T08:57:30;2.75;;;2.55;;
9384;SDS011;4732;49.340;10.886;2023-08-12T08:59:57;2.95;;;2.60;;
9384;SDS011;4732;49.340;10.886;2023-08-12T09:02:23;2.63;;;2.42;;
9384;SDS011;4732;49.340;10.886;2023-08-12T09:04:49;3.03;;;2.72;;
9384;SDS011;4732;49.340;10.886;2023-08-12T09:07:16;3.88;;;2.92;;
9384;SDS011;4732;49.340;10.886;2023-08-12T09:09:44;4.30;;;2.83;;
9384;SDS011;4732;49.340;10.886;2023-08-12T09:12:15;3.38;;;3.05;;
9384;SDS011;4732;49.340;10.886;2023-08-12T09:14:44;2.75;;;2.55;;
9384;SDS011;4732;49.340;10.886;2023-08-12T09:17:10;3.78;;;3.03;;
9384;SDS011;4732;49.340;10.886;2023-08-12T09:19:37;5.57;;;2.85;;
9384;SDS011;4732;49.340;10.886;2023-08-12T09:22:03;3.60;;;2.90;;
9384;SDS011;4732;49.340;10.886;2023-08-12T09:24:30;4.63;;;2.90;;
9384;SDS011;4732;49.340;10.886;2023-08-12T09:26:56;3.30;;;3.00;;
9384;SDS011;4732;49.340;10.886;2023-08-12T09:29:34;2.97;;;2.70;;
9384;SDS011;4732;49.340;10.886;2023-08-12T09:34:47;2.85;;;2.65;;
9384;SDS011;4732;49.340;10.886;2023-08-12T09:37:13;4.05;;;2.67;;
9384;SDS011;4732;49.340;10.886;2023-08-12T09:39:41;5.65;;;2.85;;
9384;SDS011;4732;49.340;10.886;2023-08-12T09:42:07;3.00;;;2.80;;
9384;SDS011;4732;49.340;10.886;2023-08-12T09:44:37;5.70;;;2.70;;
9384;SDS011;4732;49.340;10.886;2023-08-12T09:47:03;5.55;;;2.78;;
9384;SDS011;4732;49.340;10.886;2023-08-12T09:49:29;3.20;;;2.67;;
9384;SDS011;4732;49.340;10.886;2023-08-12T09:51:55;2.80;;;2.60;;
9384;SDS011;4732;49.340;10.886;2023-08-12T09:54:22;3.55;;;2.85;;
9384;SDS011;4732;49.340;10.886;2023-08-12T09:56:52;3.38;;;2.50;;
9384;SDS011;4732;49.340;10.886;2023-08-12T09:59:24;2.80;;;2.60;;
9384;SDS011;4732;49.340;10.886;2023-08-12T10:02:02;3.60;;;2.90;;
9384;SDS011;4732;49.340;10.886;2023-08-12T10:04:33;3.15;;;2.85;;
9384;SDS011;4732;49.340;10.886;2023-08-12T10:07:09;4.55;;;2.88;;
9384;SDS011;4732;49.340;10.886;2023-08-12T10:09:39;4.38;;;2.90;;
9384;SDS011;4732;49.340;10.886;2023-08-12T10:12:05;3.10;;;2.80;;
9384;SDS011;4732;49.340;10.886;2023-08-12T10:14:32;3.83;;;3.05;;
9384;SDS011;4732;49.340;10.886;2023-08-12T10:16:58;3.25;;;2.95;;
9384;SDS011;4732;49.340;10.886;2023-08-12T10:19:25;3.38;;;2.90;;
9384;SDS011;4732;49.340;10.886;2023-08-12T10:21:56;6.55;;;3.17;;
9384;SDS011;4732;49.340;10.886;2023-08-12T10:24:24;3.10;;;2.78;;
9384;SDS011;4732;49.340;10.886;2023-08-12T10:26:51;4.15;;;2.70;;
9384;SDS011;4732;49.340;10.886;2023-08-12T10:29:18;2.88;;;2.67;;
9384;SDS011;4732;49.340;10.886;2023-08-12T10:31:48;3.35;;;3.03;;
9384;SDS011;4732;49.340;10.886;2023-08-12T10:34:24;3.10;;;2.80;;
9384;SDS011;4732;49.340;10.886;2023-08-12T10:36:54;3.65;;;3.20;;
9384;SDS011;4732;49.340;10.886;2023-08-12T10:39:27;3.47;;;3.17;;
9384;SDS011;4732;49.340;10.886;2023-08-12T10:41:54;3.25;;;2.97;;
9384;SDS011;4732;49.340;10.886;2023-08-12T10:44:21;3.58;;;2.60;;
9384;SDS011;4732;49.340;10.886;2023-08-12T10:46:56;2.88;;;2.58;;
9384;SDS011;4732;49.340;10.886;2023-08-12T10:49:23;3.30;;;3.00;;
9384;SDS011;4732;49.340;10.886;2023-08-12T10:51:50;3.13;;;2.90;;
9384;SDS011;4732;49.340;10.886;2023-08-12T10:54:23;4.43;;;2.88;;
9384;SDS011;4732;49.340;10.886;2023-08-12T11:04:54;3.15;;;2.90;;
9384;SDS011;4732;49.340;10.886;2023-08-12T11:07:21;2.85;;;2.63;;
9384;SDS011;4732;49.340;10.886;2023-08-12T11:10:10;4.28;;;3.08;;
9384;SDS011;4732;49.340;10.886;2023-08-12T11:12:39;4.75;;;3.38;;
9384;SDS011;4732;49.340;10.886;2023-08-12T11:15:14;6.07;;;3.15;;
9384;SDS011;4732;49.340;10.886;2023-08-12T11:17:44;2.88;;;2.67;;
9384;SDS011;4732;49.340;10.886;2023-08-12T11:20:12;3.40;;;3.10;;
9384;SDS011;4732;49.340;10.886;2023-08-12T11:22:43;4.50;;;3.17;;
9384;SDS011;4732;49.340;10.886;2023-08-12T11:25:12;6.10;;;2.92;;
9384;SDS011;4732;49.340;10.886;2023-08-12T11:27:43;2.85;;;2.65;;
9384;SDS011;4732;49.340;10.886;2023-08-12T11:30:10;3.00;;;2.80;;
9384;SDS011;4732;49.340;10.886;2023-08-12T11:32:41;3.10;;;2.80;;
9384;SDS011;4732;49.340;10.886;2023-08-12T11:35:09;3.10;;;2.80;;
9384;SDS011;4732;49.340;10.886;2023-08-12T11:37:36;5.60;;;2.88;;
9384;SDS011;4732;49.340;10.886;2023-08-12T11:40:04;3.22;;;2.95;;
9384;SDS011;4732;49.340;10.886;2023-08-12T11:42:34;3.33;;;2.95;;
9384;SDS011;4732;49.340;10.886;2023-08-12T11:45:04;3.90;;;2.80;;
9384;SDS011;4732;49.340;10.886;2023-08-12T11:47:36;2.75;;;2.55;;
9384;SDS011;4732;49.340;10.886;2023-08-12T11:50:03;2.85;;;2.65;;
9384;SDS011;4732;49.340;10.886;2023-08-12T11:52:30;3.65;;;2.10;;
9384;SDS011;4732;49.340;10.886;2023-08-12T11:54:58;2.60;;;2.40;;
9384;SDS011;4732;49.340;10.886;2023-08-12T11:57:25;2.70;;;2.40;;
9384;SDS011;4732;49.340;10.886;2023-08-12T11:59:58;4.07;;;2.80;;
9384;SDS011;4732;49.340;10.886;2023-08-12T12:02:29;4.03;;;2.78;;
9384;SDS011;4732;49.340;10.886;2023-08-12T12:04:55;3.20;;;2.50;;
9384;SDS011;4732;49.340;10.886;2023-08-12T12:07:21;4.78;;;2.50;;
9384;SDS011;4732;49.340;10.886;2023-08-12T12:09:55;4.00;;;3.00;;
9384;SDS011;4732;49.340;10.886;2023-08-12T12:12:24;2.78;;;2.58;;
9384;SDS011;4732;49.340;10.886;2023-08-12T12:14:53;3.65;;;2.78;;
9384;SDS011;4732;49.340;10.886;2023-08-12T12:17:22;3.22;;;2.70;;
9384;SDS011;4732;49.340;10.886;2023-08-12T12:19:55;2.65;;;2.45;;
9384;SDS011;4732;49.340;10.886;2023-08-12T12:22:28;3.00;;;2.67;;
9384;SDS011;4732;49.340;10.886;2023-08-12T12:24:57;2.72;;;2.50;;
9384;SDS011;4732;49.340;10.886;2023-08-12T12:27:24;3.20;;;2.90;;
9384;SDS011;4732;49.340;10.886;2023-08-12T12:29:51;2.65;;;2.45;;
9384;SDS011;4732;49.340;10.886;2023-08-12T12:32:20;3.65;;;2.83;;
9384;SDS011;4732;49.340;10.886;2023-08-12T12:34:46;4.53;;;3.03;;
9384;SDS011;4732;49.340;10.886;2023-08-12T12:37:13;4.03;;;2.63;;
9384;SDS011;4732;49.340;10.886;2023-08-12T12:39:39;3.67;;;2.78;;
9384;SDS011;4732;49.340;10.886;2023-08-12T12:42:05;3.83;;;3.05;;
9384;SDS011;4732;49.340;10.886;2023-08-12T12:44:31;3.58;;;2.75;;
9384;SDS011;4732;49.340;10.886;2023-08-12T12:46:57;3.53;;;2.35;;
9384;SDS011;4732;49.340;10.886;2023-08-12T12:49:23;4.03;;;2.70;;
9384;SDS011;4732;49.340;10.886;2023-08-12T12:51:49;3.35;;;2.65;;
9384;SDS011;4732;49.340;10.886;2023-08-12T12:54:15;5.10;;;2.70;;
9384;SDS011;4732;49.340;10.886;2023-08-12T12:56:41;2.83;;;2.47;;
9384;SDS011;4732;49.340;10.886;2023-08-12T12:59:07;2.85;;;2.58;;
9384;SDS011;4732;49.340;10.886;2023-08-12T13:01:33;3.08;;;2.38;;
9384;SDS011;4732;49.340;10.886;2023-08-12T13:03:59;3.42;;;2.20;;
9384;SDS011;4732;49.340;10.886;2023-08-12T13:06:24;2.90;;;2.63;;
9384;SDS011;4732;49.340;10.886;2023-08-12T13:08:50;3.38;;;2.53;;
9384;SDS011;4732;49.340;10.886;2023-08-12T13:11:18;5.88;;;2.45;;
9384;SDS011;4732;49.340;10.886;2023-08-12T13:13:44;2.92;;;2.60;;
9384;SDS011;4732;49.340;10.886;2023-08-12T13:16:10;6.50;;;3.10;;
9384;SDS011;4732;49.340;10.886;2023-08-12T13:18:43;2.83;;;2.58;;
9384;SDS011;4732;49.340;10.886;2023-08-12T13:21:09;2.80;;;2.47;;
9384;SDS011;4732;49.340;10.886;2023-08-12T13:23:35;3.92;;;2.88;;
9384;SDS011;4732;49.340;10.886;2023-08-12T13:26:01;3.72;;;2.80;;
9384;SDS011;4732;49.340;10.886;2023-08-12T13:28:27;3.30;;;2.60;;
9384;SDS011;4732;49.340;10.886;2023-08-12T13:30:53;3.72;;;3.25;;
9384;SDS011;4732;49.340;10.886;2023-08-12T13:33:22;4.55;;;2.58;;
9384;SDS011;4732;49.340;10.886;2023-08-12T13:35:47;6.18;;;3.00;;
9384;SDS011;4732;49.340;10.886;2023-08-12T13:38:13;4.30;;;2.88;;
9384;SDS011;4732;49.340;10.886;2023-08-12T13:40:38;6.18;;;2.95;;
9384;SDS011;4732;49.340;10.886;2023-08-12T13:43:04;4.10;;;2.67;;
9384;SDS011;4732;49.340;10.886;2023-08-12T13:45:29;3.22;;;2.92;;
9384;SDS011;4732;49.340;10.886;2023-08-12T13:47:55;4.03;;;3.10;;
9384;SDS011;4732;49.340;10.886;2023-08-12T13:50:21;6.47;;;2.65;;
9384;SDS011;4732;49.340;10.886;2023-08-12T13:52:46;3.10;;;2.80;;
9384;SDS011;4732;49.340;10.886;2023-08-12T13:55:12;3.15;;;2.60;;
9384;SDS011;4732;49.340;10.886;2023-08-12T13:57:38;3.80;;;2.80;;
9384;SDS011;4732;49.340;10.886;2023-08-12T14:00:04;3.00;;;2.55;;
9384;SDS011;4732;49.340;10.886;2023-08-12T14:02:35;2.60;;;2.40;;
9384;SDS011;4732;49.340;10.886;2023-08-12T14:05:01;7.95;;;3.10;;
9384;SDS011;4732;49.340;10.886;2023-08-12T14:07:27;4.47;;;2.80;;
9384;SDS011;4732;49.340;10.886;2023-08-12T14:09:53;3.78;;;2.70;;
9384;SDS011;4732;49.340;10.886;2023-08-12T14:12:18;3.92;;;2.80;;
9384;SDS011;4732;49.340;10.886;2023-08-12T14:14:44;7.57;;;3.08;;
9384;SDS011;4732;49.340;10.886;2023-08-12T14:17:10;9.57;;;3.30;;
9384;SDS011;4732;49.340;10.886;2023-08-12T14:19:38;7.10;;;2.25;;
9384;SDS011;4732;49.340;10.886;2023-08-12T14:22:06;3.03;;;1.90;;
9384;SDS011;4732;49.340;10.886;2023-08-12T14:24:32;2.88;;;2.08;;
9384;SDS011;4732;49.340;10.886;2023-08-12T14:26:58;5.18;;;2.10;;
9384;SDS011;4732;49.340;10.886;2023-08-12T14:29:28;2.70;;;1.80;;
9384;SDS011;4732;49.340;10.886;2023-08-12T14:31:55;5.35;;;1.70;;
9384;SDS011;4732;49.340;10.886;2023-08-12T14:34:20;7.00;;;1.85;;
9384;SDS011;4732;49.340;10.886;2023-08-12T14:36:46;1.70;;;1.60;;
9384;SDS011;4732;49.340;10.886;2023-08-12T14:39:12;3.60;;;1.50;;
9384;SDS011;4732;49.340;10.886;2023-08-12T14:41:38;2.38;;;1.33;;
9384;SDS011;4732;49.340;10.886;2023-08-12T14:44:04;7.65;;;1.70;;
9384;SDS011;4732;49.340;10.886;2023-08-12T14:46:31;3.17;;;1.50;;
9384;SDS011;4732;49.340;10.886;2023-08-12T14:48:57;4.85;;;1.80;;
9384;SDS011;4732;49.340;10.886;2023-08-12T14:51:22;7.13;;;2.55;;
9384;SDS011;4732;49.340;10.886;2023-08-12T14:53:48;5.65;;;2.53;;
9384;SDS011;4732;49.340;10.886;2023-08-12T14:56:14;3.83;;;2.15;;
9384;SDS011;4732;49.340;10.886;2023-08-12T14:58:40;4.15;;;2.40;;
9384;SDS011;4732;49.340;10.886;2023-08-12T15:01:05;3.20;;;2.35;;
9384;SDS011;4732;49.340;10.886;2023-08-12T15:03:32;2.13;;;1.92;;
9384;SDS011;4732;49.340;10.886;2023-08-12T15:06:02;5.47;;;2.63;;
9384;SDS011;4732;49.340;10.886;2023-08-12T15:08:29;3.95;;;2.30;;
9384;SDS011;4732;49.340;10.886;2023-08-12T15:10:56;6.78;;;2.70;;
9384;SDS011;4732;49.340;10.886;2023-08-12T15:13:22;2.50;;;2.10;;
9384;SDS011;4732;49.340;10.886;2023-08-12T15:15:48;5.53;;;2.63;;
9384;SDS011;4732;49.340;10.886;2023-08-12T15:18:15;2.95;;;2.33;;
9384;SDS011;4732;49.340;10.886;2023-08-12T15:20:41;4.07;;;2.63;;
9384;SDS011;4732;49.340;10.886;2023-08-12T15:23:07;4.68;;;2.20;;
9384;SDS011;4732;49.340;10.886;2023-08-12T15:25:33;3.00;;;2.22;;
9384;SDS011;4732;49.340;10.886;2023-08-12T15:31:38;8.73;;;2.70;;
9384;SDS011;4732;49.340;10.886;2023-08-12T15:34:08;3.53;;;2.00;;
9384;SDS011;4732;49.340;10.886;2023-08-12T15:36:41;5.63;;;3.65;;
9384;SDS011;4732;49.340;10.886;2023-08-12T15:39:33;10.75;;;8.20;;
9384;SDS011;4732;49.340;10.886;2023-08-12T15:42:04;14.38;;;11.82;;
9384;SDS011;4732;49.340;10.886;2023-08-12T15:44:31;10.38;;;8.05;;
9384;SDS011;4732;49.340;10.886;2023-08-12T15:47:02;5.95;;;4.03;;
9384;SDS011;4732;49.340;10.886;2023-08-12T15:49:32;3.92;;;3.03;;
9384;SDS011;4732;49.340;10.886;2023-08-12T15:51:58;4.13;;;2.70;;
9384;SDS011;4732;49.340;10.886;2023-08-12T15:54:24;5.88;;;4.80;;
9384;SDS011;4732;49.340;10.886;2023-08-12T15:56:50;4.00;;;2.88;;
9384;SDS011;4732;49.340;10.886;2023-08-12T15:59:16;2.83;;;2.15;;
9384;SDS011;4732;49.340;10.886;2023-08-12T16:01:41;5.55;;;2.33;;
9384;SDS011;4732;49.340;10.886;2023-08-12T16:04:08;2.40;;;2.20;;
9384;SDS011;4732;49.340;10.886;2023-08-12T16:06:33;4.47;;;2.58;;
9384;SDS011;4732;49.340;10.886;2023-08-12T16:08:59;4.25;;;2.22;;
9384;SDS011;4732;49.340;10.886;2023-08-12T16:11:25;5.72;;;2.33;;
9384;SDS011;4732;49.340;10.886;2023-08-12T16:13:51;5.90;;;2.53;;
9384;SDS011;4732;49.340;10.886;2023-08-12T16:16:16;3.10;;;2.33;;
9384;SDS011;4732;49.340;10.886;2023-08-12T16:18:42;4.28;;;2.38;;
9384;SDS011;4732;49.340;10.886;2023-08-12T16:21:08;2.35;;;2.15;;
9384;SDS011;4732;49.340;10.886;2023-08-12T16:23:33;5.32;;;2.50;;
9384;SDS011;4732;49.340;10.886;2023-08-12T16:25:59;3.90;;;2.20;;
9384;SDS011;4732;49.340;10.886;2023-08-12T16:28:25;5.68;;;2.38;;
9384;SDS011;4732;49.340;10.886;2023-08-12T16:30:51;3.83;;;1.90;;
9384;SDS011;4732;49.340;10.886;2023-08-12T16:33:17;3.40;;;2.40;;
9384;SDS011;4732;49.340;10.886;2023-08-12T16:35:43;6.60;;;2.30;;
9384;SDS011;4732;49.340;10.886;2023-08-12T16:38:10;4.88;;;2.28;;
9384;SDS011;4732;49.340;10.886;2023-08-12T16:40:36;5.55;;;2.35;;
9384;SDS011;4732;49.340;10.886;2023-08-12T16:43:02;2.38;;;1.90;;
9384;SDS011;4732;49.340;10.886;2023-08-12T16:45:28;3.17;;;2.15;;
9384;SDS011;4732;49.340;10.886;2023-08-12T16:47:53;2.35;;;2.08;;
9384;SDS011;4732;49.340;10.886;2023-08-12T16:50:19;3.90;;;2.08;;
9384;SDS011;4732;49.340;10.886;2023-08-12T16:52:44;4.45;;;2.00;;
9384;SDS011;4732;49.340;10.886;2023-08-12T16:55:10;3.65;;;2.05;;
9384;SDS011;4732;49.340;10.886;2023-08-12T16:57:35;3.72;;;2.22;;
9384;SDS011;4732;49.340;10.886;2023-08-12T17:00:01;2.53;;;2.03;;
9384;SDS011;4732;49.340;10.886;2023-08-12T17:02:30;2.95;;;2.17;;
9384;SDS011;4732;49.340;10.886;2023-08-12T17:04:56;4.72;;;2.40;;
9384;SDS011;4732;49.340;10.886;2023-08-12T17:07:22;4.13;;;2.40;;
9384;SDS011;4732;49.340;10.886;2023-08-12T17:09:48;3.65;;;2.13;;
9384;SDS011;4732;49.340;10.886;2023-08-12T17:12:14;3.80;;;2.50;;
9384;SDS011;4732;49.340;10.886;2023-08-12T17:14:39;3.03;;;2.40;;
9384;SDS011;4732;49.340;10.886;2023-08-12T17:17:05;8.57;;;2.97;;
9384;SDS011;4732;49.340;10.886;2023-08-12T17:19:31;3.42;;;2.53;;
9384;SDS011;4732;49.340;10.886;2023-08-12T17:21:57;3.22;;;2.00;;
9384;SDS011;4732;49.340;10.886;2023-08-12T17:24:22;2.95;;;2.42;;
9384;SDS011;4732;49.340;10.886;2023-08-12T17:26:48;5.35;;;2.42;;
9384;SDS011;4732;49.340;10.886;2023-08-12T17:29:16;3.53;;;2.25;;
9384;SDS011;4732;49.340;10.886;2023-08-12T17:31:42;3.03;;;2.47;;
9384;SDS011;4732;49.340;10.886;2023-08-12T17:34:08;2.60;;;2.40;;
9384;SDS011;4732;49.340;10.886;2023-08-12T17:36:34;2.90;;;2.15;;
9384;SDS011;4732;49.340;10.886;2023-08-12T17:38:59;4.18;;;2.72;;
9384;SDS011;4732;49.340;10.886;2023-08-12T17:41:25;7.32;;;5.15;;
9384;SDS011;4732;49.340;10.886;2023-08-12T17:43:51;5.88;;;4.88;;
9384;SDS011;4732;49.340;10.886;2023-08-12T17:46:17;4.93;;;4.25;;
9384;SDS011;4732;49.340;10.886;2023-08-12T17:48:42;3.65;;;3.28;;
9384;SDS011;4732;49.340;10.886;2023-08-12T17:51:08;3.50;;;3.00;;
9384;SDS011;4732;49.340;10.886;2023-08-12T17:53:38;3.63;;;2.80;;
9384;SDS011;4732;49.340;10.886;2023-08-12T17:56:04;4.30;;;2.60;;
9384;SDS011;4732;49.340;10.886;2023-08-12T17:58:30;6.18;;;3.30;;
9384;SDS011;4732;49.340;10.886;2023-08-12T18:00:56;3.58;;;2.78;;
9384;SDS011;4732;49.340;10.886;2023-08-12T18:03:21;8.10;;;3.30;;
9384;SDS011;4732;49.340;10.886;2023-08-12T18:05:47;5.05;;;3.17;;
9384;SDS011;4732;49.340;10.886;2023-08-12T18:08:12;8.10;;;6.63;;
9384;SDS011;4732;49.340;10.886;2023-08-12T18:10:38;4.95;;;4.28;;
9384;SDS011;4732;49.340;10.886;2023-08-12T18:13:04;6.88;;;5.78;;
9384;SDS011;4732;49.340;10.886;2023-08-12T18:15:29;6.60;;;4.45;;
9384;SDS011;4732;49.340;10.886;2023-08-12T18:17:55;3.45;;;2.75;;
9384;SDS011;4732;49.340;10.886;2023-08-12T18:20:21;3.30;;;3.00;;
9384;SDS011;4732;49.340;10.886;2023-08-12T18:22:46;5.10;;;2.80;;
9384;SDS011;4732;49.340;10.886;2023-08-12T18:25:15;3.20;;;2.83;;
9384;SDS011;4732;49.340;10.886;2023-08-12T18:27:41;4.30;;;2.90;;
9384;SDS011;4732;49.340;10.886;2023-08-12T18:30:07;3.13;;;2.80;;
9384;SDS011;4732;49.340;10.886;2023-08-12T18:32:33;3.53;;;3.00;;
9384;SDS011;4732;49.340;10.886;2023-08-12T18:34:58;3.75;;;2.80;;
9384;SDS011;4732;49.340;10.886;2023-08-12T18:37:24;2.97;;;2.67;;
9384;SDS011;4732;49.340;10.886;2023-08-12T18:39:49;4.68;;;3.53;;
9384;SDS011;4732;49.340;10.886;2023-08-12T18:42:15;5.72;;;3.38;;
9384;SDS011;4732;49.340;10.886;2023-08-12T18:44:41;6.47;;;3.80;;
9384;SDS011;4732;49.340;10.886;2023-08-12T18:47:06;7.78;;;4.10;;
9384;SDS011;4732;49.340;10.886;2023-08-12T18:49:32;7.82;;;3.58;;
9384;SDS011;4732;49.340;10.886;2023-08-12T18:51:57;4.13;;;3.22;;
9384;SDS011;4732;49.340;10.886;2023-08-12T18:54:23;4.82;;;3.35;;
9384;SDS011;4732;49.340;10.886;2023-08-12T18:56:48;5.00;;;3.58;;
9384;SDS011;4732;49.340;10.886;2023-08-12T18:59:14;3.45;;;3.15;;
9384;SDS011;4732;49.340;10.886;2023-08-12T19:01:40;6.07;;;3.83;;
9384;SDS011;4732;49.340;10.886;2023-08-12T19:04:05;4.85;;;3.55;;
9384;SDS011;4732;49.340;10.886;2023-08-12T19:06:31;4.72;;;3.85;;
9384;SDS011;4732;49.340;10.886;2023-08-12T19:08:57;4.60;;;3.80;;
9384;SDS011;4732;49.340;10.886;2023-08-12T19:11:24;4.68;;;3.90;;
9384;SDS011;4732;49.340;10.886;2023-08-12T19:13:49;6.65;;;4.47;;
9384;SDS011;4732;49.340;10.886;2023-08-12T19:16:15;5.53;;;4.60;;
9384;SDS011;4732;49.340;10.886;2023-08-12T19:18:41;5.72;;;4.60;;
9384;SDS011;4732;49.340;10.886;2023-08-12T19:21:06;8.23;;;4.93;;
9384;SDS011;4732;49.340;10.886;2023-08-12T19:23:32;4.78;;;4.13;;
9384;SDS011;4732;49.340;10.886;2023-08-12T19:25:57;5.28;;;3.67;;
9384;SDS011;4732;49.340;10.886;2023-08-12T19:28:29;3.53;;;3.10;;
9384;SDS011;4732;49.340;10.886;2023-08-12T19:31:03;5.47;;;3.35;;
9384;SDS011;4732;49.340;10.886;2023-08-12T19:33:39;4.60;;;3.50;;
9384;SDS011;4732;49.340;10.886;2023-08-12T19:36:05;4.60;;;3.15;;
9384;SDS011;4732;49.340;10.886;2023-08-12T19:38:33;4.68;;;3.20;;
9384;SDS011;4732;49.340;10.886;2023-08-12T19:41:01;4.47;;;3.40;;
9384;SDS011;4732;49.340;10.886;2023-08-12T19:43:30;6.60;;;3.28;;
9384;SDS011;4732;49.340;10.886;2023-08-12T19:46:03;4.28;;;3.50;;
9384;SDS011;4732;49.340;10.886;2023-08-12T19:48:32;4.38;;;3.50;;
9384;SDS011;4732;49.340;10.886;2023-08-12T19:50:58;8.20;;;3.72;;
9384;SDS011;4732;49.340;10.886;2023-08-12T19:53:31;4.05;;;3.50;;
9384;SDS011;4732;49.340;10.886;2023-08-12T19:56:24;3.70;;;3.35;;
9384;SDS011;4732;49.340;10.886;2023-08-12T19:58:53;4.18;;;3.55;;
9384;SDS011;4732;49.340;10.886;2023-08-12T20:01:26;4.85;;;3.40;;
9384;SDS011;4732;49.340;10.886;2023-08-12T20:04:09;5.03;;;4.25;;
9384;SDS011;4732;49.340;10.886;2023-08-12T20:06:37;5.25;;;4.43;;
9384;SDS011;4732;49.340;10.886;2023-08-12T20:09:08;5.40;;;3.50;;
9384;SDS011;4732;49.340;10.886;2023-08-12T20:11:39;4.75;;;3.63;;
9384;SDS011;4732;49.340;10.886;2023-08-12T20:14:04;4.82;;;3.35;;
9384;SDS011;4732;49.340;10.886;2023-08-12T20:16:30;3.30;;;3.00;;
9384;SDS011;4732;49.340;10.886;2023-08-12T20:19:32;4.45;;;3.13;;
9384;SDS011;4732;49.340;10.886;2023-08-12T20:22:01;3.92;;;3.50;;
9384;SDS011;4732;49.340;10.886;2023-08-12T20:24:32;4.68;;;3.13;;
9384;SDS011;4732;49.340;10.886;2023-08-12T20:26:58;4.25;;;3.85;;
9384;SDS011;4732;49.340;10.886;2023-08-12T20:29:34;5.07;;;4.57;;
9384;SDS011;4732;49.340;10.886;2023-08-12T20:32:00;5.32;;;4.45;;
9384;SDS011;4732;49.340;10.886;2023-08-12T20:34:25;5.20;;;4.72;;
9384;SDS011;4732;49.340;10.886;2023-08-12T20:36:51;5.55;;;4.38;;
9384;SDS011;4732;49.340;10.886;2023-08-12T20:39:17;4.47;;;3.97;;
9384;SDS011;4732;49.340;10.886;2023-08-12T20:41:44;5.07;;;4.10;;
9384;SDS011;4732;49.340;10.886;2023-08-12T20:44:43;4.45;;;4.05;;
9384;SDS011;4732;49.340;10.886;2023-08-12T20:47:18;5.70;;;4.40;;
9384;SDS011;4732;49.340;10.886;2023-08-12T20:49:44;3.97;;;3.42;;
9384;SDS011;4732;49.340;10.886;2023-08-12T20:52:11;4.28;;;3.72;;
9384;SDS011;4732;49.340;10.886;2023-08-12T20:54:42;5.32;;;3.72;;
9384;SDS011;4732;49.340;10.886;2023-08-12T20:57:07;4.60;;;4.20;;
9384;SDS011;4732;49.340;10.886;2023-08-12T20:59:33;4.18;;;3.78;;
9384;SDS011;4732;49.340;10.886;2023-08-12T21:01:59;4.18;;;3.78;;
9384;SDS011;4732;49.340;10.886;2023-08-12T21:04:27;4.78;;;3.75;;
9384;SDS011;4732;49.340;10.886;2023-08-12T21:07:10;5.88;;;4.40;;
9384;SDS011;4732;49.340;10.886;2023-08-12T21:09:36;4.97;;;4.47;;
9384;SDS011;4732;49.340;10.886;2023-08-12T21:12:13;5.35;;;4.13;;
9384;SDS011;4732;49.340;10.886;2023-08-12T21:14:41;5.40;;;4.60;;
9384;SDS011;4732;49.340;10.886;2023-08-12T21:17:08;4.68;;;4.22;;
9384;SDS011;4732;49.340;10.886;2023-08-12T21:19:33;4.78;;;4.28;;
9384;SDS011;4732;49.340;10.886;2023-08-12T21:21:59;4.80;;;4.40;;
9384;SDS011;4732;49.340;10.886;2023-08-12T21:24:28;5.68;;;5.15;;
9384;SDS011;4732;49.340;10.886;2023-08-12T21:26:54;5.38;;;4.88;;
9384;SDS011;4732;49.340;10.886;2023-08-12T21:29:24;4.93;;;4.50;;
9384;SDS011;4732;49.340;10.886;2023-08-12T21:31:53;4.65;;;4.15;;
9384;SDS011;4732;49.340;10.886;2023-08-12T21:34:18;5.47;;;4.97;;
9384;SDS011;4732;49.340;10.886;2023-08-12T21:36:45;4.53;;;4.13;;
9384;SDS011;4732;49.340;10.886;2023-08-12T21:40:09;4.20;;;3.80;;
9384;SDS011;4732;49.340;10.886;2023-08-12T21:42:35;4.05;;;3.65;;
9384;SDS011;4732;49.340;10.886;2023-08-12T21:45:02;6.25;;;4.28;;
9384;SDS011;4732;49.340;10.886;2023-08-12T21:47:31;6.43;;;5.55;;
9384;SDS011;4732;49.340;10.886;2023-08-12T21:50:15;9.23;;;7.53;;
9384;SDS011;4732;49.340;10.886;2023-08-12T21:52:50;11.10;;;9.70;;